Time;durP1;ratioP1;P1;durP2;ratioP2;P2;SDS_P1;SDS_P2;PMS_P1;PMS_P2;Temp;Humidity;BMP_temperature;BMP_pressure;BME280_temperature;BME280_humidity;BME280_pressure;Samples;Min_cycle;Max_cycle;Signal;HPM_P1;HPM_P2
2023/12/05 00:13:19;;;;;;;8.17;5.20;;;;;;;5.06;58.34;101381.78;31013021;28;20189;-72
2023/12/05 00:28:21;;;;;;;6.97;4.20;;;;;;;5.27;59.93;101394.16;31039191;28;20089;-74
2023/12/05 00:43:23;;;;;;;8.27;4.07;;;;;;;5.24;60.31;101408.31;31036151;28;20057;-73
2023/12/05 00:58:24;;;;;;;7.53;3.87;;;;;;;5.39;60.85;101415.59;31099495;28;20465;-75
2023/12/05 01:13:27;;;;;;;6.93;4.33;;;;;;;5.39;62.19;101410.22;31060812;28;20054;-73
2023/12/05 01:28:29;;;;;;;7.97;4.40;;;;;;;5.46;63.59;101427.31;31077451;28;20090;-72
2023/12/05 01:43:31;;;;;;;5.73;3.50;;;;;;;5.49;63.55;101417.75;31031363;28;20161;-73
2023/12/05 01:58:34;;;;;;;4.87;3.53;;;;;;;5.58;63.33;101418.34;31051221;28;20137;-74
2023/12/05 02:13:37;;;;;;;7.17;3.93;;;;;;;5.63;63.17;101414.59;31048060;28;20093;-73
2023/12/05 02:28:39;;;;;;;9.53;4.27;;;;;;;5.66;63.13;101414.69;31040267;28;20145;-76
2023/12/05 02:43:49;;;;;;;8.47;4.77;;;;;;;5.93;62.98;101449.88;31054032;28;20054;-74
2023/12/05 02:58:51;;;;;;;11.97;5.40;;;;;;;5.78;62.94;101460.34;31092895;28;20141;-78
2023/12/05 03:13:53;;;;;;;10.37;5.13;;;;;;;5.73;61.85;101466.00;31036316;28;20069;-77
2023/12/05 03:28:55;;;;;;;10.47;5.63;;;;;;;5.78;62.61;101473.81;31021880;28;20485;-73
2023/12/05 03:43:57;;;;;;;11.57;5.87;;;;;;;5.80;63.86;101471.53;31026761;28;20050;-77
2023/12/05 03:58:59;;;;;;;11.00;5.43;;;;;;;5.69;62.87;101473.22;31023413;28;20141;-77
2023/12/05 04:14:01;;;;;;;12.13;5.80;;;;;;;5.64;63.89;101491.59;31048251;28;20535;-77
2023/12/05 04:29:04;;;;;;;10.30;5.83;;;;;;;5.42;63.61;101485.72;31026279;28;20504;-77
2023/12/05 04:44:06;;;;;;;10.30;5.63;;;;;;;5.14;64.71;101491.19;31063489;28;20050;-76
2023/12/05 04:59:08;;;;;;;17.30;8.23;;;;;;;5.18;65.20;101496.69;31059335;28;20065;-76
2023/12/05 05:14:10;;;;;;;14.90;8.27;;;;;;;5.01;66.02;101497.00;31079130;28;20089;-77
2023/12/05 05:29:12;;;;;;;25.40;7.80;;;;;;;4.82;66.55;101521.88;31055617;28;20084;-76
2023/12/05 05:44:14;;;;;;;16.43;7.93;;;;;;;4.97;68.69;101510.34;31066462;28;20128;-77
2023/12/05 05:59:16;;;;;;;18.37;9.40;;;;;;;7.06;65.44;101518.72;31057559;28;20081;-74
2023/12/05 06:14:19;;;;;;;17.37;9.10;;;;;;;8.80;60.94;101513.00;31042629;28;20085;-72
2023/12/05 06:29:21;;;;;;;16.43;8.30;;;;;;;9.88;59.13;101502.63;31051951;28;20144;-73
2023/12/05 06:44:23;;;;;;;10.77;5.87;;;;;;;10.85;56.78;101509.97;31006543;28;20082;-75
2023/12/05 06:59:25;;;;;;;16.77;7.67;;;;;;;11.90;54.05;101521.97;31028254;28;20514;-74
2023/12/05 07:14:27;;;;;;;15.03;6.83;;;;;;;12.49;53.09;101508.53;31045530;28;20137;-74
2023/12/05 07:29:29;;;;;;;10.10;6.47;;;;;;;13.10;51.92;101500.75;31049703;28;20086;-77
2023/12/05 07:44:33;;;;;;;16.07;8.40;;;;;;;13.88;50.30;101502.78;31042175;28;20368;-76
2023/12/05 07:59:34;;;;;;;14.97;7.90;;;;;;;14.14;48.50;101519.66;31098390;28;20078;-77
2023/12/05 08:14:37;;;;;;;14.40;8.00;;;;;;;14.57;47.40;101493.34;31113220;28;20090;-77
2023/12/05 08:29:39;;;;;;;14.33;8.17;;;;;;;14.67;46.63;101486.16;31076271;28;20053;-77
2023/12/05 08:44:42;;;;;;;16.63;8.57;;;;;;;14.78;45.66;101475.88;31065909;28;20046;-76
2023/12/05 08:59:45;;;;;;;13.50;6.73;;;;;;;14.67;46.29;101437.75;31074611;28;20427;-77
2023/12/05 09:14:47;;;;;;;10.03;6.07;;;;;;;12.74;45.50;101448.47;31076354;28;20056;-77
2023/12/05 09:29:49;;;;;;;9.67;6.43;;;;;;;11.90;47.73;101462.13;31097076;28;20054;-73
2023/12/05 09:44:52;;;;;;;11.33;6.10;;;;;;;11.81;47.36;101437.25;31059270;28;20066;-77
2023/12/05 09:59:55;;;;;;;11.83;6.10;;;;;;;10.63;47.92;101435.06;31054299;28;20109;-73
2023/12/05 10:14:58;;;;;;;10.33;6.17;;;;;;;10.86;47.35;101438.97;31026912;28;20054;-74
2023/12/05 10:30:00;;;;;;;11.80;6.00;;;;;;;10.91;46.30;101430.41;31021421;28;20480;-75
2023/12/05 10:45:05;;;;;;;14.97;5.80;;;;;;;11.69;44.10;101426.00;31020412;28;20042;-74
2023/12/05 11:00:09;;;;;;;13.27;5.47;;;;;;;11.01;45.75;101422.66;31039533;28;20054;-75
2023/12/05 11:15:15;;;;;;;11.77;5.70;;;;;;;11.47;45.62;101423.34;31033591;28;20080;-74
2023/12/05 11:30:37;;;;;;;12.43;6.20;;;;;;;10.53;46.94;101399.34;31036161;28;20060;-75
2023/12/05 11:45:41;;;;;;;10.90;5.63;;;;;;;10.67;47.40;101392.38;31029435;28;20109;-76
2023/12/05 12:00:45;;;;;;;10.40;5.30;;;;;;;10.79;45.94;101379.19;31041719;28;20062;-78
2023/12/05 12:15:48;;;;;;;17.00;7.97;;;;;;;12.55;44.47;101403.44;31040372;28;20081;-75
2023/12/05 12:30:50;;;;;;;16.13;7.80;;;;;;;9.85;47.93;101384.81;31049435;28;20104;-76
2023/12/05 12:45:52;;;;;;;12.97;6.07;;;;;;;9.16;50.27;101382.13;31066952;28;20046;-78
2023/12/05 13:00:55;;;;;;;10.37;5.83;;;;;;;8.57;51.44;101396.75;31058680;28;20081;-76
2023/12/05 13:15:57;;;;;;;13.97;5.70;;;;;;;8.31;52.18;101396.84;31058038;28;20050;-77
2023/12/05 13:30:59;;;;;;;13.17;6.27;;;;;;;8.10;51.85;101389.28;31060104;28;20596;-76
2023/12/05 13:46:01;;;;;;;15.33;6.00;;;;;;;7.69;51.83;101394.63;31055352;28;20089;-74
2023/12/05 14:01:03;;;;;;;12.40;6.77;;;;;;;7.83;53.17;101385.88;31043694;28;20046;-74
2023/12/05 14:16:06;;;;;;;14.73;6.77;;;;;;;7.95;53.13;101382.19;31034835;28;20042;-76
2023/12/05 14:31:08;;;;;;;12.97;6.67;;;;;;;7.70;53.46;101388.06;31050182;28;20109;-76
2023/12/05 14:46:11;;;;;;;12.30;5.97;;;;;;;7.56;54.02;101360.84;31050941;28;20064;-76
2023/12/05 15:01:13;;;;;;;14.50;6.80;;;;;;;7.41;54.08;101349.09;31030118;28;20452;-76
2023/12/05 15:16:15;;;;;;;13.33;6.83;;;;;;;7.27;53.65;101334.63;31048649;28;20145;-79
2023/12/05 15:31:31;;;;;;;11.87;6.60;;;;;;;6.94;54.17;101336.09;31032752;28;20054;-75
2023/12/05 15:46:33;;;;;;;14.37;7.10;;;;;;;6.94;54.36;101341.47;31032465;28;20097;-73
2023/12/05 16:01:36;;;;;;;15.47;7.13;;;;;;;6.91;53.97;101323.31;31027601;28;20555;-72
2023/12/05 16:16:39;;;;;;;10.70;6.07;;;;;;;6.63;54.97;101336.34;31120241;28;20064;-72
2023/12/05 16:31:41;;;;;;;15.27;7.60;;;;;;;6.53;54.59;101324.28;31051155;28;20133;-73
2023/12/05 16:46:43;;;;;;;16.93;10.03;;;;;;;6.00;55.41;101320.66;31017523;28;20491;-74
2023/12/05 17:01:45;;;;;;;16.00;8.30;;;;;;;5.89;56.37;101327.78;31091450;28;20046;-83
2023/12/05 17:16:49;;;;;;;22.57;10.17;;;;;;;5.83;56.17;101327.25;31099145;28;20750;-77
2023/12/05 17:31:51;;;;;;;16.90;8.30;;;;;;;5.65;57.40;101313.44;31067364;28;20124;-79
2023/12/05 17:46:53;;;;;;;17.83;8.27;;;;;;;5.52;57.71;101317.38;31079018;28;20050;-75
2023/12/05 18:01:57;;;;;;;16.90;9.50;;;;;;;5.51;58.76;101320.44;31042675;28;20058;-75
2023/12/05 18:16:59;;;;;;;16.07;8.87;;;;;;;5.35;59.17;101321.28;31061038;28;20070;-80
2023/12/05 18:32:02;;;;;;;15.03;8.07;;;;;;;4.89;58.30;101324.88;31066023;28;20400;-78
2023/12/05 18:47:04;;;;;;;19.83;8.33;;;;;;;4.78;58.47;101303.09;31071796;28;20061;-79
2023/12/05 19:02:06;;;;;;;18.50;9.57;;;;;;;4.58;60.49;101298.78;31090188;28;20455;-79
2023/12/05 19:17:09;;;;;;;20.83;8.30;;;;;;;4.51;61.75;101290.53;31049050;28;20070;-80
2023/12/05 19:32:12;;;;;;;17.87;9.10;;;;;;;4.34;62.60;101295.13;31073559;28;20125;-83
2023/12/05 19:47:20;;;;;;;13.93;8.40;;;;;;;4.48;63.05;101275.13;31045686;28;20066;-82
2023/12/05 20:02:22;;;;;;;20.80;10.67;;;;;;;4.17;63.61;101265.16;31035533;28;20553;-79
2023/12/05 20:17:26;;;;;;;14.20;8.57;;;;;;;4.07;63.92;101255.69;31041855;28;20058;-80
2023/12/05 20:32:29;;;;;;;24.53;11.20;;;;;;;3.92;64.56;101243.03;31073279;28;20585;-78
2023/12/05 20:47:34;;;;;;;14.47;7.87;;;;;;;3.76;64.70;101254.53;31141723;28;20089;-79
2023/12/05 21:02:36;;;;;;;12.03;5.83;;;;;;;3.34;64.75;101264.09;31101831;28;20408;-82
2023/12/05 21:17:39;;;;;;;13.63;7.07;;;;;;;3.31;67.00;101246.75;31052525;28;20141;-75
2023/12/05 21:32:41;;;;;;;15.03;6.83;;;;;;;2.93;68.92;101236.47;31041733;28;20054;-76
2023/12/05 21:47:43;;;;;;;15.10;7.27;;;;;;;2.95;70.34;101228.88;31103714;28;20496;-76
2023/12/05 22:02:45;;;;;;;12.43;6.70;;;;;;;2.70;70.84;101235.41;31112272;28;20068;-75
2023/12/05 22:17:47;;;;;;;16.40;7.77;;;;;;;2.71;71.37;101212.84;31019526;28;20133;-78
2023/12/05 22:32:49;;;;;;;15.37;6.23;;;;;;;2.71;68.94;101228.94;31104401;28;20507;-77
2023/12/05 22:47:52;;;;;;;16.13;7.03;;;;;;;2.38;70.89;101205.72;31082973;28;20133;-77
2023/12/05 23:02:55;;;;;;;10.63;5.97;;;;;;;2.39;71.66;101191.19;31076701;28;20435;-75
2023/12/05 23:17:58;;;;;;;9.30;5.40;;;;;;;2.51;72.08;101181.59;31030191;28;20050;-75
2023/12/05 23:33:01;;;;;;;16.20;8.33;;;;;;;2.64;72.57;101165.13;31011797;28;20097;-76
2023/12/05 23:48:03;;;;;;;17.83;6.97;;;;;;;2.52;73.67;101188.53;31062990;28;20047;-76
